Time;durP1;ratioP1;P1;durP2;ratioP2;P2;SDS_P1;SDS_P2;PMS_P1;PMS_P2;Temp;Humidity;BMP_temperature;BMP_pressure;BME280_temperature;BME280_humidity;BME280_pressure;Samples;Min_cycle;Max_cycle;Signal;HPM_P1;HPM_P2
2023/04/28 00:00:19;;;;;;;2.83;1.55;;;;;;;12.81;64.99;99569.03;12184095;19;20086;-80
2023/04/28 00:04:21;;;;;;;6.25;2.63;;;;;;;12.84;66.21;99569.31;12169806;19;20015;-80
2023/04/28 00:08:25;;;;;;;3.78;1.95;;;;;;;12.84;66.66;99563.78;12189788;19;20074;-80
2023/04/28 00:12:27;;;;;;;3.22;1.67;;;;;;;12.85;66.64;99556.31;12186726;19;20467;-80
2023/04/28 00:16:29;;;;;;;3.55;1.80;;;;;;;12.83;67.73;99559.38;12174910;19;20000;-80
2023/04/28 00:20:31;;;;;;;4.22;1.70;;;;;;;12.85;67.15;99559.09;12174102;19;20524;-80
2023/04/28 00:24:35;;;;;;;6.25;1.88;;;;;;;12.86;66.58;99550.53;12191372;19;20007;-80
2023/04/28 00:28:36;;;;;;;3.30;1.98;;;;;;;12.90;66.74;99556.34;12165695;19;20009;-80
2023/04/28 00:32:39;;;;;;;3.15;1.52;;;;;;;12.93;66.58;99544.75;12188567;19;20010;-79
2023/04/28 00:36:41;;;;;;;2.15;1.60;;;;;;;12.96;66.53;99533.13;12186550;19;20015;-80
2023/04/28 00:40:43;;;;;;;3.97;1.98;;;;;;;12.91;65.70;99536.72;12166748;19;20007;-81
2023/04/28 00:44:44;;;;;;;3.80;1.80;;;;;;;12.89;65.99;99532.56;12182116;19;20006;-80
2023/04/28 00:48:47;;;;;;;4.35;1.90;;;;;;;12.83;66.19;99519.84;12184938;19;20014;-80
2023/04/28 00:52:50;;;;;;;;;;;;;;;12.79;66.21;99522.31;12164330;19;20015;-80
2023/04/28 00:56:53;;;;;;;8.13;2.33;;;;;;;12.78;66.55;99518.69;12186087;19;19938;-80
2023/04/28 01:01:02;;;;;;;3.00;1.80;;;;;;;12.75;68.29;99510.13;12198528;19;20033;-79
2023/04/28 01:05:04;;;;;;;4.68;1.73;;;;;;;12.72;68.43;99505.97;12172114;19;20066;-78
2023/04/28 01:09:07;;;;;;;4.70;2.22;;;;;;;12.72;69.13;99494.91;12192388;19;20023;-79
2023/04/28 01:13:10;;;;;;;2.92;1.95;;;;;;;12.71;69.72;99476.66;12178803;19;20014;-80
2023/04/28 01:17:12;;;;;;;5.25;1.80;;;;;;;12.69;71.21;99473.34;12195031;19;20042;-80
2023/04/28 01:21:24;;;;;;;5.18;1.92;;;;;;;12.67;72.54;99467.25;12198561;19;20015;-79
2023/04/28 01:25:26;;;;;;;6.07;2.25;;;;;;;12.65;72.99;99455.63;12172571;19;20416;-79
2023/04/28 01:29:28;;;;;;;3.65;1.70;;;;;;;12.62;73.86;99463.66;12178685;19;20014;-80
2023/04/28 01:33:30;;;;;;;5.80;2.70;;;;;;;12.60;75.75;99466.66;12195533;19;20047;-80
2023/04/28 01:37:31;;;;;;;5.05;2.13;;;;;;;12.57;78.30;99474.69;12175296;19;20014;-80
2023/04/28 01:41:34;;;;;;;3.35;2.08;;;;;;;12.52;79.37;99472.72;12200710;19;20376;-80
2023/04/28 01:45:37;;;;;;;2.67;1.65;;;;;;;12.48;80.98;99460.56;12199297;19;20003;-81
2023/04/28 01:49:39;;;;;;;3.17;1.80;;;;;;;12.45;83.15;99461.09;12177254;19;20010;-81
2023/04/28 01:53:41;;;;;;;9.10;2.97;;;;;;;12.40;85.60;99450.03;12197282;19;20013;-80
2023/04/28 01:57:43;;;;;;;4.97;2.60;;;;;;;12.31;87.45;99446.94;12201879;19;20015;-81
2023/04/28 02:01:45;;;;;;;6.03;2.77;;;;;;;12.23;87.54;99444.72;12186660;19;19998;-81
2023/04/28 02:05:48;;;;;;;6.93;2.33;;;;;;;12.15;89.95;99437.78;12204528;19;20070;-80
2023/04/28 02:09:49;;;;;;;8.77;2.80;;;;;;;12.10;92.55;99440.50;12212151;19;20030;-80
2023/04/28 02:13:51;;;;;;;7.18;2.80;;;;;;;12.03;94.84;99449.03;12188983;19;20029;-81
2023/04/28 02:17:53;;;;;;;5.20;2.88;;;;;;;11.93;97.36;99454.50;12207519;19;20021;-80
2023/04/28 02:21:55;;;;;;;5.90;2.35;;;;;;;11.87;98.83;99458.34;12208504;19;21156;-81
2023/04/28 02:26:00;;;;;;;6.78;2.72;;;;;;;11.85;99.96;99458.59;12180564;19;20007;-81
2023/04/28 02:30:04;;;;;;;2.97;1.92;;;;;;;11.82;100.00;99459.09;12206750;19;20079;-80
2023/04/28 02:34:07;;;;;;;8.25;2.97;;;;;;;11.80;100.00;99466.81;12208775;19;20010;-79
2023/04/28 02:38:09;;;;;;;4.95;3.05;;;;;;;11.82;100.00;99461.88;12182591;19;20046;-81
2023/04/28 02:42:10;;;;;;;4.55;3.08;;;;;;;11.82;100.00;99458.28;12216088;19;20011;-81
2023/04/28 02:46:12;;;;;;;8.95;2.95;;;;;;;11.81;100.00;99451.94;12187002;19;20006;-81
2023/04/28 02:50:15;;;;;;;7.63;2.55;;;;;;;11.80;100.00;99444.72;12210007;19;20013;-81
2023/04/28 02:54:26;;;;;;;6.90;2.80;;;;;;;11.80;100.00;99433.69;12207245;19;20145;-79
2023/04/28 02:58:29;;;;;;;5.63;2.72;;;;;;;11.82;100.00;99439.78;12185072;19;20023;-79
2023/04/28 03:02:30;;;;;;;5.63;2.53;;;;;;;11.85;100.00;99430.16;12205740;19;20027;-80
2023/04/28 03:06:32;;;;;;;4.47;2.85;;;;;;;11.88;100.00;99428.81;12204836;19;20011;-80
2023/04/28 03:10:34;;;;;;;5.57;2.90;;;;;;;11.88;100.00;99434.31;12181104;19;20098;-80
2023/04/28 03:14:37;;;;;;;5.35;2.50;;;;;;;11.89;100.00;99425.75;12204071;19;20003;-79
2023/04/28 03:18:39;;;;;;;5.85;2.60;;;;;;;11.88;100.00;99423.28;12202593;19;21228;-79
2023/04/28 03:22:41;;;;;;;4.78;2.53;;;;;;;11.86;100.00;99416.06;12183468;19;20007;-79
2023/04/28 03:26:43;;;;;;;6.82;2.40;;;;;;;11.85;100.00;99425.47;12202895;19;21148;-79
2023/04/28 03:30:45;;;;;;;6.35;2.50;;;;;;;11.87;100.00;99411.41;12200055;19;20010;-79
2023/04/28 03:34:47;;;;;;;4.43;2.20;;;;;;;11.85;100.00;99416.38;12180139;19;20010;-78
2023/04/28 03:38:49;;;;;;;10.20;2.83;;;;;;;11.86;100.00;99410.56;12200120;19;20096;-78
2023/04/28 03:42:51;;;;;;;5.00;2.88;;;;;;;11.88;100.00;99403.97;12202880;19;20007;-79
2023/04/28 03:47:00;;;;;;;5.30;2.55;;;;;;;11.86;100.00;99399.50;12181369;19;20039;-79
2023/04/28 03:51:02;;;;;;;6.43;3.67;;;;;;;11.86;99.01;99405.03;12200713;19;20010;-78
2023/04/28 03:55:05;;;;;;;7.93;2.88;;;;;;;11.89;99.36;99405.59;12202503;19;20007;-78
2023/04/28 03:59:10;;;;;;;10.25;3.30;;;;;;;11.90;100.00;99396.22;12180822;19;20069;-79
2023/04/28 04:03:13;;;;;;;5.53;3.00;;;;;;;11.91;98.23;99384.91;12199401;19;20014;-79
2023/04/28 04:07:17;;;;;;;5.20;2.55;;;;;;;11.93;98.48;99379.97;12177163;19;20014;-79
2023/04/28 04:11:19;;;;;;;5.18;3.25;;;;;;;11.94;98.96;99375.28;12203958;19;20523;-79
2023/04/28 04:15:21;;;;;;;7.63;4.63;;;;;;;11.95;99.78;99365.88;12201523;19;20020;-79
2023/04/28 04:19:25;;;;;;;6.63;3.35;;;;;;;11.92;100.00;99358.13;12175609;19;20459;-80
2023/04/28 04:23:28;;;;;;;5.70;3.15;;;;;;;11.89;100.00;99358.66;12199084;19;20017;-79
2023/04/28 04:27:30;;;;;;;6.28;3.55;;;;;;;11.85;100.00;99348.16;12200581;19;20609;-80
2023/04/28 04:31:32;;;;;;;7.63;3.70;;;;;;;11.81;100.00;99352.53;12180911;19;20348;-80
2023/04/28 04:35:35;;;;;;;8.73;4.07;;;;;;;11.78;100.00;99349.50;12193877;19;20395;-80
2023/04/28 04:39:38;;;;;;;7.53;3.88;;;;;;;11.73;100.00;99343.94;12200918;19;20013;-80
2023/04/28 04:43:40;;;;;;;11.37;4.20;;;;;;;11.67;100.00;99345.84;12181607;19;20509;-81
2023/04/28 04:47:43;;;;;;;10.23;4.57;;;;;;;11.68;100.00;99355.78;12198284;19;20010;-79
2023/04/28 04:51:45;;;;;;;8.40;4.90;;;;;;;11.59;100.00;99343.59;12204259;19;20620;-80
2023/04/28 04:55:47;;;;;;;8.15;4.63;;;;;;;11.61;100.00;99339.47;12176994;19;20376;-79
2023/04/28 04:59:50;;;;;;;9.70;4.20;;;;;;;11.63;100.00;99328.19;12198311;19;20024;-80
2023/04/28 05:03:54;;;;;;;7.40;4.72;;;;;;;11.68;100.00;99343.91;12196552;19;20313;-79
2023/04/28 05:07:58;;;;;;;9.98;5.30;;;;;;;11.68;100.00;99350.25;12172307;19;20038;-80
2023/04/28 05:12:00;;;;;;;10.38;5.18;;;;;;;11.76;100.00;99349.75;12197240;19;20010;-79
2023/04/28 05:16:04;;;;;;;7.18;4.65;;;;;;;11.80;100.00;99372.94;12199540;19;20002;-80
2023/04/28 05:20:32;;;;;;;9.00;4.60;;;;;;;11.77;100.00;99361.63;12174665;19;20068;-81
2023/04/28 05:24:35;;;;;;;9.32;4.57;;;;;;;11.76;100.00;99371.84;12195647;19;20480;-81
2023/04/28 05:28:40;;;;;;;8.23;4.55;;;;;;;11.76;100.00;99366.31;12179408;19;20028;-82
2023/04/28 05:32:44;;;;;;;7.65;4.53;;;;;;;11.78;100.00;99366.06;12201618;19;20705;-81
2023/04/28 05:36:48;;;;;;;8.43;5.00;;;;;;;11.81;100.00;99368.28;12195062;19;20522;-81
2023/04/28 05:40:53;;;;;;;9.35;4.40;;;;;;;11.84;100.00;99362.22;12191483;19;19999;-80
2023/04/28 05:44:56;;;;;;;6.60;4.53;;;;;;;11.90;100.00;99371.38;12190728;19;20014;-81
2023/04/28 05:48:58;;;;;;;7.13;4.40;;;;;;;11.97;100.00;99372.78;12210470;19;20062;-82
2023/04/28 05:53:06;;;;;;;9.45;5.10;;;;;;;12.01;100.00;99373.91;12193763;19;20076;-81
2023/04/28 05:57:08;;;;;;;8.38;5.35;;;;;;;12.02;100.00;99380.28;12212694;19;20671;-79
2023/04/28 06:01:12;;;;;;;11.60;5.15;;;;;;;12.02;100.00;99391.31;12193155;19;20031;-80
2023/04/28 06:05:14;;;;;;;10.43;5.60;;;;;;;12.00;100.00;99393.53;12214389;19;20030;-82
2023/04/28 06:09:18;;;;;;;10.32;5.95;;;;;;;11.95;100.00;99404.53;12208696;19;20035;-82
2023/04/28 06:13:20;;;;;;;11.07;5.72;;;;;;;11.84;100.00;99406.41;12192265;19;20014;-78
2023/04/28 06:17:22;;;;;;;14.38;7.10;;;;;;;11.80;100.00;99378.47;12204082;19;20015;-78
2023/04/28 06:21:27;;;;;;;9.40;6.05;;;;;;;11.85;100.00;99381.28;12210329;19;20002;-81
2023/04/28 06:25:30;;;;;;;13.20;7.20;;;;;;;11.87;100.00;99381.03;12181053;19;20914;-81
2023/04/28 06:29:33;;;;;;;14.77;7.43;;;;;;;11.82;100.00;99384.56;12208770;19;20014;-79
2023/04/28 06:33:35;;;;;;;12.32;7.50;;;;;;;11.85;100.00;99395.09;12204039;19;20011;-79
2023/04/28 06:37:37;;;;;;;11.68;5.57;;;;;;;11.89;100.00;99389.03;12182127;19;20007;-80
2023/04/28 06:41:42;;;;;;;11.52;7.63;;;;;;;11.93;100.00;99392.91;12208963;19;20373;-80
2023/04/28 06:45:48;;;;;;;14.85;8.30;;;;;;;11.99;100.00;99394.63;12200285;19;20466;-80
2023/04/28 06:49:53;;;;;;;15.80;8.85;;;;;;;11.91;100.00;99408.94;12179465;19;20006;-79
2023/04/28 06:53:56;;;;;;;14.60;9.57;;;;;;;11.86;100.00;99405.03;12199957;19;20048;-80
2023/04/28 06:57:57;;;;;;;15.93;8.73;;;;;;;11.84;100.00;99393.41;12204447;19;20368;-80
2023/04/28 07:02:00;;;;;;;17.23;9.48;;;;;;;11.84;100.00;99385.13;12184689;19;20011;-78
2023/04/28 07:06:03;;;;;;;13.77;8.57;;;;;;;11.83;100.00;99377.09;12201203;19;20023;-78
2023/04/28 07:10:05;;;;;;;15.27;9.67;;;;;;;11.86;100.00;99379.34;12204342;19;20014;-76
2023/04/28 07:14:09;;;;;;;14.70;9.13;;;;;;;11.89;100.00;99380.75;12177550;19;20243;-76
2023/04/28 07:18:12;;;;;;;17.85;9.90;;;;;;;11.92;100.00;99382.97;12200023;19;20010;-75
2023/04/28 07:22:16;;;;;;;;;;;;;;;11.89;100.00;99375.22;12179236;19;20337;-76
2023/04/28 07:26:18;;;;;;;20.38;10.75;;;;;;;11.96;100.00;99382.19;12212129;19;19907;-76
2023/04/28 07:30:21;;;;;;;17.10;10.48;;;;;;;12.06;100.00;99364.81;12205398;19;20092;-77
2023/04/28 07:34:30;;;;;;;17.17;10.00;;;;;;;12.19;100.00;99364.28;12179936;19;20048;-75
2023/04/28 07:38:35;;;;;;;15.07;8.77;;;;;;;12.34;100.00;99354.41;12197866;19;20002;-76
2023/04/28 07:42:37;;;;;;;17.60;9.75;;;;;;;12.45;100.00;99370.72;12200853;19;20015;-78
2023/04/28 07:46:39;;;;;;;18.38;10.50;;;;;;;12.52;100.00;99346.44;12171978;19;20013;-78
2023/04/28 07:50:45;;;;;;;14.15;9.38;;;;;;;12.69;100.00;99342.59;12195567;19;20031;-78
2023/04/28 07:54:46;;;;;;;16.20;9.98;;;;;;;13.01;100.00;99353.38;12200817;19;20098;-78
2023/04/28 07:58:48;;;;;;;16.57;10.20;;;;;;;13.22;100.00;99360.56;12172832;19;20006;-77
2023/04/28 08:02:53;;;;;;;15.90;10.00;;;;;;;13.29;100.00;99351.97;12192397;19;20046;-79
2023/04/28 08:06:55;;;;;;;14.10;9.10;;;;;;;13.23;100.00;99358.59;12195313;19;20011;-78
2023/04/28 08:10:58;;;;;;;18.27;9.47;;;;;;;13.10;100.00;99351.72;12177664;19;20010;-78
2023/04/28 08:15:00;;;;;;;15.98;9.55;;;;;;;13.15;100.00;99354.47;12201453;19;20021;-79
2023/04/28 08:19:02;;;;;;;14.48;8.48;;;;;;;13.21;100.00;99364.44;12198025;19;20003;-77
2023/04/28 08:23:03;;;;;;;14.63;8.05;;;;;;;13.26;100.00;99362.78;12183219;19;20027;-76
2023/04/28 08:27:05;;;;;;;14.00;8.20;;;;;;;13.18;100.00;99348.38;12192673;19;21957;-79
2023/04/28 08:31:08;;;;;;;12.93;8.35;;;;;;;13.22;100.00;99362.50;12198029;19;20010;-76
2023/04/28 08:35:12;;;;;;;14.55;8.90;;;;;;;13.31;100.00;99357.25;12178635;19;20010;-84
2023/04/28 08:39:13;;;;;;;13.93;9.67;;;;;;;13.51;100.00;99356.41;12194490;19;20055;-80
2023/04/28 08:43:16;;;;;;;14.85;10.27;;;;;;;13.49;100.00;99370.50;12174602;19;20396;-81
2023/04/28 08:47:21;;;;;;;17.50;10.50;;;;;;;13.63;100.00;99371.59;12193897;19;20007;-81
2023/04/28 08:51:35;;;;;;;17.92;10.45;;;;;;;13.68;100.00;99379.88;12197719;19;20610;-80
2023/04/28 08:55:43;;;;;;;16.88;10.27;;;;;;;13.76;100.00;99384.00;12173837;19;20627;-81
2023/04/28 08:59:47;;;;;;;18.60;10.63;;;;;;;13.97;100.00;99387.53;12196443;19;20080;-81
2023/04/28 09:03:53;;;;;;;16.38;11.32;;;;;;;14.14;100.00;99379.72;12198852;19;20018;-79
2023/04/28 09:07:55;;;;;;;15.15;9.93;;;;;;;14.32;100.00;99382.97;12186495;19;20010;-81
2023/04/28 09:12:02;;;;;;;16.08;10.15;;;;;;;14.55;100.00;99387.84;12210423;19;20020;-81
2023/04/28 09:16:06;;;;;;;16.55;11.18;;;;;;;14.61;100.00;99385.06;12211381;19;20023;-82
2023/04/28 09:20:25;;;;;;;17.63;11.80;;;;;;;14.73;100.00;99388.31;12188479;19;20014;-80
2023/04/28 09:24:31;;;;;;;19.05;10.60;;;;;;;14.80;100.00;99377.69;12207948;19;20014;-82
2023/04/28 09:28:34;;;;;;;18.05;12.35;;;;;;;14.86;100.00;99386.81;12187539;19;20565;-81
2023/04/28 09:32:36;;;;;;;16.92;11.70;;;;;;;14.71;100.00;99390.53;12211270;19;20011;-82
2023/04/28 09:36:41;;;;;;;18.42;11.43;;;;;;;14.67;100.00;99384.72;12207709;19;20010;-81
2023/04/28 09:40:57;;;;;;;15.27;10.98;;;;;;;14.68;100.00;99383.59;12191368;19;20002;-79
2023/04/28 09:45:13;;;;;;;15.23;10.90;;;;;;;14.64;100.00;99392.81;12208515;19;20007;-81
2023/04/28 09:49:15;;;;;;;17.40;11.60;;;;;;;14.64;100.00;99392.81;12181110;19;20070;-80
2023/04/28 09:53:18;;;;;;;19.88;11.48;;;;;;;14.69;100.00;99387.19;12206789;19;20018;-81
2023/04/28 09:57:21;;;;;;;19.75;11.00;;;;;;;14.74;100.00;99389.94;12210524;19;20037;-82
2023/04/28 10:01:24;;;;;;;17.63;11.70;;;;;;;14.71;100.00;99390.53;12191535;19;20007;-83
2023/04/28 10:05:27;;;;;;;16.45;11.80;;;;;;;14.77;100.00;99387.41;12212422;19;20006;-80
2023/04/28 10:09:31;;;;;;;16.67;12.07;;;;;;;14.86;100.00;99390.41;12210465;19;20378;-81
2023/04/28 10:13:35;;;;;;;18.80;11.65;;;;;;;14.94;100.00;99400.06;12188051;19;20018;-80
2023/04/28 10:17:37;;;;;;;16.50;12.88;;;;;;;15.00;100.00;99394.19;12209762;19;21365;-82
2023/04/28 10:22:06;;;;;;;19.40;12.57;;;;;;;15.07;100.00;99393.84;12211613;19;20359;-81
2023/04/28 10:26:11;;;;;;;19.77;13.77;;;;;;;15.21;100.00;99386.53;12186564;19;20030;-81
2023/04/28 10:30:18;;;;;;;18.83;12.40;;;;;;;15.38;100.00;99380.56;12215177;19;20014;-80
2023/04/28 10:34:29;;;;;;;17.73;12.43;;;;;;;15.57;100.00;99385.38;12186841;19;20466;-81
2023/04/28 10:38:33;;;;;;;16.60;12.25;;;;;;;15.77;100.00;99378.81;12205257;19;20008;-81
2023/04/28 10:42:53;;;;;;;18.17;11.93;;;;;;;15.64;100.00;99378.34;12205930;19;20035;-81
2023/04/28 10:47:06;;;;;;;17.55;12.27;;;;;;;15.41;100.00;99377.19;12184456;19;20019;-81
2023/04/28 10:51:14;;;;;;;19.23;11.98;;;;;;;15.37;100.00;99378.06;12203322;19;20015;-82
2023/04/28 10:55:25;;;;;;;16.95;11.82;;;;;;;15.41;100.00;99371.66;12187705;19;20006;-80
2023/04/28 10:59:27;;;;;;;16.15;12.80;;;;;;;15.53;100.00;99370.41;12207595;19;20022;-80
2023/04/28 11:03:50;;;;;;;19.35;13.18;;;;;;;15.56;100.00;99372.63;12209166;19;20043;-81
2023/04/28 11:08:25;;;;;;;19.05;13.25;;;;;;;15.62;100.00;99368.66;12184176;19;20022;-80
2023/04/28 11:12:27;;;;;;;17.00;13.15;;;;;;;15.76;100.00;99383.50;12207400;19;20010;-82
2023/04/28 11:16:31;;;;;;;19.08;13.27;;;;;;;15.84;100.00;99380.09;12180304;19;20033;-80
2023/04/28 11:20:36;;;;;;;19.90;13.45;;;;;;;15.82;100.00;99375.97;12205502;19;20031;-80
2023/04/28 11:24:39;;;;;;;21.05;14.13;;;;;;;15.84;100.00;99380.09;12204579;19;20374;-81
2023/04/28 11:28:55;;;;;;;22.42;14.23;;;;;;;15.73;100.00;99370.22;12178542;19;20034;-81
2023/04/28 11:32:57;;;;;;;18.63;13.88;;;;;;;15.64;100.00;99383.88;12208100;19;20014;-80
2023/04/28 11:37:00;;;;;;;18.17;13.32;;;;;;;15.68;100.00;99371.13;12216842;19;20010;-81
2023/04/28 11:41:03;;;;;;;20.75;14.18;;;;;;;15.58;100.00;99387.84;12197199;19;20021;-79
2023/04/28 11:45:05;;;;;;;20.37;13.20;;;;;;;15.44;100.00;99384.94;12225732;19;20026;-80
2023/04/28 11:49:11;;;;;;;21.80;14.40;;;;;;;15.41;100.00;99382.75;12194629;19;20007;-79
2023/04/28 11:53:13;;;;;;;16.60;12.02;;;;;;;15.43;100.00;99374.94;12215508;19;20027;-80
2023/04/28 11:57:20;;;;;;;17.27;11.70;;;;;;;15.43;100.00;99380.50;12213956;19;20010;-80
2023/04/28 12:01:23;;;;;;;17.20;12.45;;;;;;;15.42;100.00;99387.16;12192557;19;20095;-79
2023/04/28 12:05:25;;;;;;;14.77;11.25;;;;;;;15.37;100.00;99394.72;12205473;19;20003;-80
2023/04/28 12:09:28;;;;;;;16.75;11.43;;;;;;;15.37;100.00;99375.28;12216625;19;20372;-80
2023/04/28 12:13:31;;;;;;;17.63;12.07;;;;;;;15.64;100.00;99361.66;12191944;19;20475;-80
2023/04/28 12:17:33;;;;;;;15.30;11.50;;;;;;;15.95;100.00;99359.41;12210488;19;20045;-80
2023/04/28 12:21:38;;;;;;;16.00;12.02;;;;;;;16.35;100.00;99370.28;12214007;19;20009;-80
2023/04/28 12:25:45;;;;;;;16.27;11.57;;;;;;;16.47;100.00;99364.28;12190402;19;20033;-83
2023/04/28 12:29:47;;;;;;;15.55;11.73;;;;;;;16.48;100.00;99365.94;12222067;19;20066;-81
2023/04/28 12:33:49;;;;;;;17.20;12.50;;;;;;;16.48;100.00;99371.50;12217151;19;20007;-82
2023/04/28 12:37:52;;;;;;;16.37;11.87;;;;;;;16.63;100.00;99374.91;12197197;19;20007;-81
2023/04/28 12:41:54;;;;;;;14.68;10.80;;;;;;;17.01;100.00;99365.72;12216747;19;20003;-81
2023/04/28 12:45:57;;;;;;;13.85;10.43;;;;;;;17.49;100.00;99363.50;12233272;19;20077;-80
2023/04/28 12:49:59;;;;;;;9.68;8.20;;;;;;;18.57;100.00;99359.38;12206226;19;20020;-81
2023/04/28 12:54:01;;;;;;;10.67;7.93;;;;;;;19.31;100.00;99353.41;12214368;19;20035;-79
2023/04/28 12:58:03;;;;;;;8.67;6.73;;;;;;;19.61;100.00;99353.75;12217669;19;20393;-81
2023/04/28 13:02:07;;;;;;;6.85;5.57;;;;;;;19.69;100.00;99354.94;12194386;19;20017;-82
2023/04/28 13:06:10;;;;;;;6.20;5.40;;;;;;;19.82;100.00;99358.81;12208888;19;20010;-80
2023/04/28 13:10:13;;;;;;;5.93;5.07;;;;;;;19.55;100.00;99358.66;12193441;19;20597;-80
2023/04/28 13:14:16;;;;;;;6.85;4.70;;;;;;;19.08;100.00;99363.75;12213857;19;20457;-80
2023/04/28 13:18:19;;;;;;;5.38;3.80;;;;;;;18.91;100.00;99360.84;12213553;19;20372;-80
2023/04/28 13:22:22;;;;;;;;;;;;;;;19.22;100.00;99351.72;12190974;19;20440;-80
2023/04/28 13:26:26;;;;;;;6.03;3.08;;;;;;;19.55;100.00;99343.84;12203994;19;19918;-80
2023/04/28 13:30:27;;;;;;;4.83;2.57;;;;;;;19.48;100.00;99333.16;12206657;19;20011;-81
2023/04/28 13:34:30;;;;;;;4.95;2.88;;;;;;;19.22;100.00;99330.19;12181543;19;20087;-80
2023/04/28 13:38:34;;;;;;;6.20;2.83;;;;;;;19.03;100.00;99337.94;12204708;19;20003;-80
2023/04/28 13:42:37;;;;;;;5.15;3.30;;;;;;;18.95;100.00;99333.09;12202246;19;20013;-81
2023/04/28 13:46:41;;;;;;;6.72;4.30;;;;;;;18.64;100.00;99322.66;12182065;19;20123;-79
2023/04/28 13:50:43;;;;;;;6.55;4.40;;;;;;;18.65;100.00;99307.59;12206083;19;20014;-81
2023/04/28 13:54:44;;;;;;;5.90;3.27;;;;;;;18.97;100.00;99311.28;12211023;19;20555;-82
2023/04/28 13:58:47;;;;;;;4.53;3.20;;;;;;;19.02;100.00;99313.97;12191983;19;20622;-81
2023/04/28 14:02:50;;;;;;;4.55;2.92;;;;;;;18.73;100.00;99314.34;12214602;19;21084;-80
2023/04/28 14:06:53;;;;;;;4.63;3.08;;;;;;;18.36;100.00;99316.34;12214771;19;20022;-82
2023/04/28 14:10:57;;;;;;;4.07;2.80;;;;;;;18.42;100.00;99309.50;12195318;19;20079;-81
2023/04/28 14:14:59;;;;;;;9.93;3.60;;;;;;;18.35;100.00;99267.25;12217348;19;20007;-81
2023/04/28 14:19:00;;;;;;;6.85;3.25;;;;;;;18.59;100.00;99247.44;12218156;19;20030;-81
2023/04/28 14:23:03;;;;;;;4.78;2.80;;;;;;;18.86;100.00;99247.34;12193564;19;20373;-81
2023/04/28 14:27:06;;;;;;;5.20;2.20;;;;;;;19.67;100.00;99257.47;12217258;19;20031;-80
2023/04/28 14:31:08;;;;;;;2.22;1.85;;;;;;;20.18;100.00;99283.06;12213027;19;20011;-82
2023/04/28 14:35:11;;;;;;;2.00;1.70;;;;;;;20.82;100.00;99272.09;12188701;19;20743;-81
2023/04/28 14:39:13;;;;;;;3.47;1.70;;;;;;;21.24;100.00;99266.75;12212432;19;20383;-81
2023/04/28 14:43:16;;;;;;;2.63;1.40;;;;;;;21.40;100.00;99267.03;12191180;19;20014;-82
2023/04/28 14:47:18;;;;;;;1.40;1.20;;;;;;;21.36;99.84;99272.50;12217050;19;20385;-81
2023/04/28 14:51:20;;;;;;;2.53;1.07;;;;;;;21.98;92.07;99262.66;12215444;19;19998;-81
2023/04/28 14:55:24;;;;;;;1.65;0.90;;;;;;;21.74;92.83;99260.44;12194850;19;20365;-82
2023/04/28 14:59:27;;;;;;;2.33;0.98;;;;;;;21.23;93.41;99264.25;12217145;19;20011;-81
2023/04/28 15:03:29;;;;;;;2.00;0.90;;;;;;;20.67;97.92;99258.59;12211352;19;20010;-80
2023/04/28 15:07:31;;;;;;;0.88;0.73;;;;;;;20.20;100.00;99270.41;12190648;19;20026;-81
2023/04/28 15:11:33;;;;;;;1.05;0.70;;;;;;;19.78;100.00;99260.75;12211704;19;20010;-81
2023/04/28 15:15:36;;;;;;;1.37;0.70;;;;;;;19.65;100.00;99254.16;12209289;19;20002;-80
2023/04/28 15:19:38;;;;;;;;;;;;;;;19.42;100.00;99244.16;12194138;19;19999;-81
2023/04/28 15:23:40;;;;;;;2.83;1.40;;;;;;;19.86;100.00;99254.38;12217479;19;19907;-80
2023/04/28 15:27:42;;;;;;;1.33;0.83;;;;;;;20.06;100.00;99250.16;12218907;19;20007;-80
2023/04/28 15:31:44;;;;;;;3.20;0.77;;;;;;;19.82;100.00;99247.81;12192817;19;20002;-81
2023/04/28 15:35:46;;;;;;;3.80;0.88;;;;;;;19.81;100.00;99246.16;12209310;19;20415;-82
2023/04/28 15:39:48;;;;;;;0.85;0.60;;;;;;;20.07;100.00;99253.75;12215589;19;20661;-81
2023/04/28 15:43:50;;;;;;;2.17;0.80;;;;;;;20.09;100.00;99255.09;12189011;19;20042;-81
2023/04/28 15:47:53;;;;;;;4.30;1.00;;;;;;;20.01;100.00;99236.31;12198899;19;20010;-82
2023/04/28 15:51:55;;;;;;;;;;;;;;;19.88;100.00;99224.13;12208028;19;20094;-80
2023/04/28 15:55:58;;;;;;;1.02;0.73;;;;;;;19.97;100.00;99226.94;12181513;19;19958;-81
2023/04/28 16:00:00;;;;;;;3.20;0.88;;;;;;;19.97;100.00;99224.16;12207274;19;20023;-81
2023/04/28 16:04:08;;;;;;;0.77;0.60;;;;;;;19.89;100.00;99225.75;12207943;19;20018;-82
2023/04/28 16:08:10;;;;;;;1.52;0.70;;;;;;;19.74;100.00;99221.47;12182820;19;20013;-82
2023/04/28 16:12:12;;;;;;;2.45;0.80;;;;;;;19.74;100.00;99215.88;12206415;19;20090;-82
2023/04/28 16:16:14;;;;;;;3.60;1.17;;;;;;;20.00;100.00;99221.50;12182660;19;20021;-81
2023/04/28 16:20:17;;;;;;;1.45;0.90;;;;;;;19.95;100.00;99224.47;12208919;19;20006;-80
2023/04/28 16:24:22;;;;;;;1.25;0.73;;;;;;;19.83;100.00;99221.47;12207685;19;20018;-82
2023/04/28 16:28:25;;;;;;;0.60;0.37;;;;;;;19.66;100.00;99204.66;12185512;19;20471;-83
2023/04/28 16:32:28;;;;;;;7.13;3.20;;;;;;;19.37;100.00;99203.25;12209507;19;20347;-80
2023/04/28 16:36:31;;;;;;;1.50;0.70;;;;;;;19.08;100.00;99218.56;12208519;19;20351;-82
2023/04/28 16:40:35;;;;;;;1.67;0.73;;;;;;;18.93;100.00;99218.16;12186158;19;20009;-81
2023/04/28 16:44:37;;;;;;;3.35;0.88;;;;;;;18.75;100.00;99242.34;12194188;19;20042;-82
2023/04/28 16:48:39;;;;;;;;;;;;;;;18.53;100.00;99257.91;12206594;19;20017;-84
2023/04/28 16:52:57;;;;;;;2.95;0.70;;;;;;;18.32;100.00;99226.91;12190702;19;19919;-80
2023/04/28 16:57:02;;;;;;;1.60;0.95;;;;;;;18.15;100.00;99216.41;12214320;19;20014;-82
2023/04/28 17:01:06;;;;;;;1.55;1.10;;;;;;;17.95;100.00;99267.06;12213662;19;20003;-80
2023/04/28 17:05:09;;;;;;;2.55;1.05;;;;;;;17.77;100.00;99247.34;12190862;19;20006;-81
2023/04/28 17:09:12;;;;;;;2.35;0.93;;;;;;;17.66;100.00;99261.78;12213829;19;20010;-81
2023/04/28 17:13:15;;;;;;;6.03;2.03;;;;;;;17.39;100.00;99266.22;12199449;19;20002;-82
2023/04/28 17:17:17;;;;;;;2.85;1.30;;;;;;;17.15;100.00;99258.03;12220116;19;20067;-80
2023/04/28 17:21:19;;;;;;;4.73;1.67;;;;;;;16.97;100.00;99245.00;12204781;19;20007;-82
2023/04/28 17:25:25;;;;;;;4.90;1.80;;;;;;;16.89;100.00;99232.63;12179209;19;20007;-80
2023/04/28 17:29:27;;;;;;;6.38;2.30;;;;;;;16.88;100.00;99210.69;12214659;19;20011;-81
2023/04/28 17:33:32;;;;;;;2.95;1.40;;;;;;;16.92;100.00;99211.69;12222828;19;20010;-81
2023/04/28 17:37:35;;;;;;;4.40;1.65;;;;;;;16.97;100.00;99206.06;12193261;19;20455;-81
2023/04/28 17:41:38;;;;;;;3.10;1.30;;;;;;;16.89;100.00;99199.22;12216016;19;20038;-81
2023/04/28 17:45:41;;;;;;;5.88;1.70;;;;;;;16.75;100.00;99198.38;12212370;19;20031;-82
2023/04/28 17:49:45;;;;;;;3.47;1.25;;;;;;;16.99;100.00;99207.41;12193564;19;20090;-82
2023/04/28 17:53:47;;;;;;;2.60;1.08;;;;;;;16.78;100.00;99220.84;12200947;19;20356;-81
2023/04/28 17:57:50;;;;;;;3.53;1.08;;;;;;;16.34;100.00;99210.19;12210237;19;20014;-82
2023/04/28 18:01:55;;;;;;;1.83;0.90;;;;;;;15.99;100.00;99225.44;12193587;19;20118;-81
2023/04/28 18:05:58;;;;;;;2.58;0.80;;;;;;;15.75;100.00;99217.97;12212188;19;20006;-81
2023/04/28 18:10:02;;;;;;;4.93;0.77;;;;;;;15.47;100.00;99226.09;12219670;19;20003;-82
2023/04/28 18:14:07;;;;;;;4.70;0.90;;;;;;;15.18;100.00;99226.16;12193543;19;20010;-82
2023/04/28 18:18:12;;;;;;;3.13;0.95;;;;;;;14.99;100.00;99234.41;12212569;19;20140;-83
2023/04/28 18:22:17;;;;;;;0.77;0.60;;;;;;;14.81;100.00;99233.19;12191496;19;20360;-83
2023/04/28 18:26:21;;;;;;;;;;;;;;;14.66;100.00;99230.53;12212703;19;20003;-83
2023/04/28 18:30:24;;;;;;;2.13;0.80;;;;;;;14.58;100.00;99254.19;12210326;19;19907;-83
2023/04/28 18:34:27;;;;;;;4.72;1.50;;;;;;;14.48;100.00;99248.69;12181315;19;20007;-81